Time;durP1;ratioP1;P1;durP2;ratioP2;P2;SDS_P1;SDS_P2;PMS_P1;PMS_P2;Temp;Humidity;BMP_temperature;BMP_pressure;BME280_temperature;BME280_humidity;BME280_pressure;Samples;Min_cycle;Max_cycle;Signal;HPM_P1;HPM_P2
2023/06/11 00:01:17;;;;;;;16.27;14.18;;;23.10;55.00;;;;;;5047654;28;20040;-75
2023/06/11 00:03:46;;;;;;;15.32;13.73;;;23.10;54.90;;;;;;5043724;28;20467;-76
2023/06/11 00:06:17;;;;;;;19.92;13.40;;;23.10;55.00;;;;;;5059235;28;20055;-76
2023/06/11 00:08:44;;;;;;;14.80;13.00;;;23.10;55.00;;;;;;5048672;28;20028;-75
2023/06/11 00:11:10;;;;;;;14.65;13.07;;;23.00;55.20;;;;;;5050793;28;20040;-76
2023/06/11 00:13:36;;;;;;;16.58;14.73;;;23.00;55.30;;;;;;5047490;28;20124;-75
2023/06/11 00:16:03;;;;;;;15.15;13.60;;;23.00;55.50;;;;;;5042928;28;20057;-75
2023/06/11 00:18:29;;;;;;;16.50;13.35;;;22.90;55.70;;;;;;5044752;28;20029;-76
2023/06/11 00:20:58;;;;;;;17.33;14.60;;;22.80;55.80;;;;;;5044879;28;20048;-76
2023/06/11 00:23:24;;;;;;;16.95;14.80;;;22.80;56.00;;;;;;5041406;28;20026;-75
2023/06/11 00:25:52;;;;;;;18.48;13.95;;;22.70;56.10;;;;;;5058116;28;20065;-76
2023/06/11 00:28:19;;;;;;;16.85;14.73;;;22.70;56.30;;;;;;5052822;28;20044;-75
2023/06/11 00:30:44;;;;;;;16.50;14.80;;;22.60;56.40;;;;;;5047583;28;20108;-74
2023/06/11 00:33:11;;;;;;;18.10;15.88;;;22.60;56.50;;;;;;5050238;28;20440;-75
2023/06/11 00:35:37;;;;;;;16.60;14.90;;;22.60;56.80;;;;;;5049817;28;20311;-75
2023/06/11 00:38:03;;;;;;;17.80;15.93;;;22.60;56.90;;;;;;5046137;28;20458;-75
2023/06/11 00:40:30;;;;;;;17.75;15.85;;;22.50;57.00;;;;;;5047791;28;20389;-75
2023/06/11 00:42:56;;;;;;;19.15;16.42;;;22.50;57.40;;;;;;5061732;28;20775;-75
2023/06/11 00:45:22;;;;;;;17.33;15.63;;;22.30;57.70;;;;;;5050417;28;20031;-75
2023/06/11 00:47:48;;;;;;;17.92;14.35;;;22.30;57.70;;;;;;5049822;28;20043;-75
2023/06/11 00:50:15;;;;;;;18.90;15.70;;;22.30;57.70;;;;;;5049573;28;20831;-75
2023/06/11 00:52:42;;;;;;;17.08;15.30;;;22.30;57.90;;;;;;5049640;28;20028;-75
2023/06/11 00:55:08;;;;;;;17.00;15.30;;;22.30;58.10;;;;;;5051818;28;20048;-75
2023/06/11 00:57:35;;;;;;;17.00;15.02;;;22.20;58.10;;;;;;5051883;28;20068;-75
2023/06/11 01:00:03;;;;;;;16.52;14.80;;;22.20;58.20;;;;;;5046864;28;20044;-74
2023/06/11 01:02:39;;;;;;;17.00;15.20;;;22.20;58.40;;;;;;5051906;28;20493;-74
2023/06/11 01:05:08;;;;;;;16.20;14.55;;;22.10;58.30;;;;;;5042441;28;20029;-74
2023/06/11 01:07:36;;;;;;;16.90;15.13;;;22.10;58.40;;;;;;5049917;28;20048;-74
2023/06/11 01:10:06;;;;;;;16.88;15.07;;;22.20;58.60;;;;;;5048745;28;20115;-74
2023/06/11 01:12:32;;;;;;;18.38;15.85;;;22.10;58.70;;;;;;5051688;28;20046;-74
2023/06/11 01:14:57;;;;;;;17.42;15.63;;;22.10;58.60;;;;;;5037777;28;20025;-74
2023/06/11 01:17:52;;;;;;;16.95;14.75;;;22.10;58.80;;;;;;5050056;28;20029;-74
2023/06/11 01:20:25;;;;;;;;;;;22.10;58.90;;;;;;5050974;28;20048;-74
2023/06/11 01:23:09;;;;;;;18.15;16.25;;;22.10;59.30;;;;;;5039166;28;19924;-74
2023/06/11 01:26:12;;;;;;;16.70;14.57;;;22.00;59.20;;;;;;5055650;28;20039;-74
2023/06/11 01:28:39;;;;;;;18.38;14.38;;;22.00;59.40;;;;;;5016837;28;20033;-73
2023/06/11 01:31:11;;;;;;;16.80;15.02;;;22.00;59.60;;;;;;5020895;28;20026;-73
2023/06/11 01:33:36;;;;;;;16.65;14.60;;;22.00;59.50;;;;;;5019508;28;20774;-79
2023/06/11 01:36:02;;;;;;;18.58;15.05;;;21.90;59.80;;;;;;5015802;28;20100;-76
2023/06/11 01:38:34;;;;;;;17.83;15.80;;;21.90;59.70;;;;;;5021667;28;20088;-76
2023/06/11 01:41:01;;;;;;;17.17;14.93;;;21.90;59.80;;;;;;5016358;28;20037;-78
2023/06/11 01:43:28;;;;;;;17.08;15.15;;;21.80;59.90;;;;;;5019534;28;20010;-76
2023/06/11 01:45:55;;;;;;;17.10;15.30;;;21.70;60.20;;;;;;5013780;28;20109;-75
2023/06/11 01:48:21;;;;;;;17.27;15.55;;;21.70;60.30;;;;;;5018368;28;20029;-76
2023/06/11 01:50:47;;;;;;;22.27;16.27;;;21.70;60.50;;;;;;5021145;28;20033;-76
2023/06/11 01:53:12;;;;;;;16.60;14.82;;;21.60;60.50;;;;;;5022396;28;20029;-76
2023/06/11 01:55:39;;;;;;;20.23;16.98;;;21.60;60.50;;;;;;5022257;28;20094;-77
2023/06/11 01:58:05;;;;;;;20.00;16.25;;;21.60;60.70;;;;;;5016214;28;20045;-76
2023/06/11 02:00:31;;;;;;;17.70;15.85;;;21.50;61.00;;;;;;5011440;28;20042;-75
2023/06/11 02:02:56;;;;;;;16.90;15.20;;;21.50;61.10;;;;;;5011704;28;20033;-76
2023/06/11 02:05:22;;;;;;;17.88;15.98;;;21.40;61.40;;;;;;5013368;28;20071;-75
2023/06/11 02:07:48;;;;;;;19.05;15.77;;;21.30;61.40;;;;;;5017853;28;20033;-76
2023/06/11 02:10:13;;;;;;;18.88;16.38;;;21.40;61.50;;;;;;5020657;28;20033;-75
2023/06/11 02:12:39;;;;;;;18.33;15.43;;;21.40;61.60;;;;;;5014718;28;20080;-77
2023/06/11 02:15:06;;;;;;;17.52;15.52;;;21.30;61.50;;;;;;5016594;28;20026;-76
2023/06/11 02:17:32;;;;;;;17.70;15.90;;;21.30;61.80;;;;;;5016307;28;20038;-76
2023/06/11 02:19:57;;;;;;;18.40;15.00;;;21.30;61.90;;;;;;5015270;28;20117;-75
2023/06/11 02:22:23;;;;;;;17.40;14.85;;;21.30;62.20;;;;;;5015148;28;20293;-79
2023/06/11 02:24:49;;;;;;;18.70;16.33;;;21.20;62.30;;;;;;5025186;28;20033;-77
2023/06/11 02:27:15;;;;;;;16.40;14.70;;;21.20;62.30;;;;;;5023823;28;20045;-76
2023/06/11 02:29:41;;;;;;;16.38;14.45;;;21.20;62.30;;;;;;5017737;28;20163;-76
2023/06/11 02:32:07;;;;;;;17.48;15.60;;;21.10;62.40;;;;;;5034652;28;20454;-76
2023/06/11 02:34:33;;;;;;;17.13;15.32;;;21.10;62.60;;;;;;5019125;28;20155;-75
2023/06/11 02:36:58;;;;;;;17.17;15.43;;;21.10;62.70;;;;;;5020691;28;20466;-76
2023/06/11 02:39:24;;;;;;;16.83;15.05;;;21.10;62.70;;;;;;5022607;28;20039;-77
2023/06/11 02:41:50;;;;;;;15.88;14.25;;;21.10;62.80;;;;;;5019878;28;20038;-76
2023/06/11 02:44:16;;;;;;;17.50;15.77;;;21.10;62.90;;;;;;5016217;28;20030;-76
2023/06/11 02:46:41;;;;;;;18.67;15.63;;;21.10;63.10;;;;;;5024753;28;20048;-76
2023/06/11 02:49:07;;;;;;;16.95;15.35;;;21.10;63.10;;;;;;5014181;28;20528;-77
2023/06/11 02:51:33;;;;;;;21.42;16.50;;;21.00;63.20;;;;;;5011070;28;20516;-78
2023/06/11 02:53:58;;;;;;;16.52;14.82;;;21.00;63.40;;;;;;5019897;28;20038;-76
2023/06/11 02:56:24;;;;;;;17.27;15.50;;;20.90;63.60;;;;;;5018164;28;20038;-78
2023/06/11 02:58:50;;;;;;;19.27;17.20;;;20.90;63.70;;;;;;5009714;28;20152;-75
2023/06/11 03:01:15;;;;;;;21.67;17.02;;;20.80;63.80;;;;;;5017561;28;20121;-78
2023/06/11 03:03:41;;;;;;;19.02;17.02;;;20.80;64.00;;;;;;5022201;28;20049;-80
2023/06/11 03:06:07;;;;;;;19.15;16.17;;;20.80;64.00;;;;;;5020420;28;20214;-78
2023/06/11 03:08:33;;;;;;;20.60;16.38;;;20.70;64.10;;;;;;5025909;28;20073;-78
2023/06/11 03:10:59;;;;;;;18.80;16.80;;;20.70;64.40;;;;;;5025302;28;20441;-77
2023/06/11 03:13:25;;;;;;;19.52;17.63;;;20.60;64.60;;;;;;5025170;28;20041;-78
2023/06/11 03:15:50;;;;;;;19.77;17.70;;;20.60;64.80;;;;;;5012843;28;20048;-79
2023/06/11 03:18:16;;;;;;;18.75;16.85;;;20.50;65.20;;;;;;5024185;28;20036;-78
2023/06/11 03:20:42;;;;;;;19.27;15.90;;;20.50;65.40;;;;;;5022685;28;20393;-77
2023/06/11 03:23:09;;;;;;;18.02;16.23;;;20.40;65.30;;;;;;5021135;28;20063;-77
2023/06/11 03:25:35;;;;;;;19.65;17.55;;;20.50;65.40;;;;;;5021046;28;20034;-78
2023/06/11 03:28:02;;;;;;;21.60;19.15;;;20.40;65.40;;;;;;5023945;28;20046;-78
2023/06/11 03:30:28;;;;;;;19.40;17.15;;;20.30;65.70;;;;;;5020253;28;20164;-77
2023/06/11 03:32:53;;;;;;;19.92;18.02;;;20.20;66.10;;;;;;5025200;28;20112;-78
2023/06/11 03:35:19;;;;;;;20.58;18.48;;;20.10;66.40;;;;;;5025205;28;20033;-80
2023/06/11 03:37:45;;;;;;;18.90;17.10;;;20.10;66.60;;;;;;5018383;28;20021;-78
2023/06/11 03:40:10;;;;;;;20.55;18.35;;;20.10;66.70;;;;;;5025476;28;20103;-78
2023/06/11 03:42:36;;;;;;;18.77;16.98;;;20.10;66.80;;;;;;5014500;28;20120;-78
2023/06/11 03:45:02;;;;;;;20.58;18.38;;;20.10;66.80;;;;;;5022067;28;20104;-77
2023/06/11 03:47:28;;;;;;;24.17;18.88;;;20.10;67.00;;;;;;5023109;28;20061;-77
2023/06/11 03:49:53;;;;;;;20.92;18.83;;;20.10;66.80;;;;;;5021473;28;20060;-77
2023/06/11 03:52:19;;;;;;;21.45;18.67;;;20.10;67.40;;;;;;5022430;28;20042;-77
2023/06/11 03:54:45;;;;;;;20.15;18.02;;;20.00;67.60;;;;;;5018652;28;20045;-78
2023/06/11 03:57:12;;;;;;;20.48;18.35;;;20.10;67.60;;;;;;5021945;28;20052;-79
2023/06/11 03:59:38;;;;;;;20.48;18.27;;;20.10;67.30;;;;;;5019908;28;20096;-77
2023/06/11 04:02:04;;;;;;;18.27;16.17;;;20.10;67.10;;;;;;5024717;28;20028;-78
2023/06/11 04:04:32;;;;;;;19.10;16.98;;;20.20;67.10;;;;;;5025954;28;20280;-80
2023/06/11 04:06:58;;;;;;;19.10;17.02;;;20.30;66.90;;;;;;5020492;28;20025;-77
2023/06/11 04:09:23;;;;;;;20.30;18.30;;;20.30;66.60;;;;;;5025077;28;20035;-78
2023/06/11 04:11:49;;;;;;;20.13;18.08;;;20.40;66.70;;;;;;5022583;28;20408;-77
2023/06/11 04:14:15;;;;;;;18.67;16.75;;;20.40;66.60;;;;;;5023429;28;20120;-77
2023/06/11 04:16:40;;;;;;;18.50;16.60;;;20.40;66.60;;;;;;5014850;28;20030;-78
2023/06/11 04:19:06;;;;;;;19.70;17.73;;;20.40;66.50;;;;;;5016694;28;20025;-78
2023/06/11 04:21:32;;;;;;;19.90;17.90;;;20.50;66.40;;;;;;5024209;28;20049;-80
2023/06/11 04:23:57;;;;;;;18.20;16.15;;;20.60;66.30;;;;;;5023481;28;20037;-76
2023/06/11 04:26:23;;;;;;;19.00;17.00;;;20.60;66.10;;;;;;5019186;28;20088;-77
2023/06/11 04:28:50;;;;;;;20.70;18.23;;;20.60;66.10;;;;;;5026584;28;20034;-77
2023/06/11 04:31:16;;;;;;;19.70;17.70;;;20.60;66.00;;;;;;5020379;28;20498;-77
2023/06/11 04:33:41;;;;;;;19.48;17.38;;;20.60;66.00;;;;;;5025585;28;20033;-76
2023/06/11 04:36:08;;;;;;;18.58;16.67;;;20.60;66.00;;;;;;5017501;28;20038;-79
2023/06/11 04:38:36;;;;;;;19.98;17.95;;;20.60;66.00;;;;;;5021436;28;20037;-78
2023/06/11 04:41:05;;;;;;;21.17;18.63;;;20.50;66.30;;;;;;5024550;28;20043;-78
2023/06/11 04:43:33;;;;;;;19.23;17.25;;;20.50;66.60;;;;;;5025009;28;20075;-78
2023/06/11 04:45:59;;;;;;;18.80;17.00;;;20.60;66.70;;;;;;5011728;28;20053;-76
2023/06/11 04:48:27;;;;;;;18.52;16.63;;;20.60;66.40;;;;;;5019339;28;20032;-77
2023/06/11 04:50:55;;;;;;;19.77;17.88;;;20.70;66.30;;;;;;5022366;28;20555;-76
2023/06/11 04:53:27;;;;;;;21.90;18.48;;;20.80;65.90;;;;;;5017936;28;20030;-76
2023/06/11 04:55:54;;;;;;;19.23;16.92;;;20.90;66.10;;;;;;5020825;28;20079;-77
2023/06/11 04:58:22;;;;;;;18.98;17.15;;;20.80;66.20;;;;;;5026120;28;20025;-76
2023/06/11 05:00:48;;;;;;;20.80;16.38;;;20.90;66.30;;;;;;5022176;28;20065;-77
2023/06/11 05:03:18;;;;;;;18.42;16.55;;;21.00;66.10;;;;;;5014497;28;20091;-78
2023/06/11 05:05:51;;;;;;;20.23;18.05;;;21.10;66.00;;;;;;5021253;28;20036;-76
2023/06/11 05:08:24;;;;;;;19.33;17.13;;;21.30;65.60;;;;;;5022539;28;20401;-77
2023/06/11 05:10:51;;;;;;;18.65;16.73;;;22.20;63.60;;;;;;5020890;28;20034;-77
2023/06/11 05:13:22;;;;;;;17.98;15.13;;;23.60;58.70;;;;;;5015853;28;20498;-76
2023/06/11 05:15:48;;;;;;;18.88;14.82;;;24.90;56.00;;;;;;5020275;28;20167;-77
2023/06/11 05:18:14;;;;;;;18.30;14.38;;;26.10;51.80;;;;;;5039438;28;20025;-79
2023/06/11 05:20:40;;;;;;;16.05;13.77;;;26.80;50.00;;;;;;5037634;28;20163;-79
2023/06/11 05:23:06;;;;;;;17.25;14.20;;;27.40;48.00;;;;;;5037544;28;20124;-79
2023/06/11 05:25:31;;;;;;;14.80;12.93;;;28.00;46.70;;;;;;5040636;28;20116;-78
2023/06/11 05:28:01;;;;;;;23.38;14.82;;;28.20;46.60;;;;;;5040564;28;20033;-79
2023/06/11 05:30:29;;;;;;;16.45;13.07;;;28.60;45.40;;;;;;5040192;28;20055;-77
2023/06/11 05:32:56;;;;;;;16.98;13.75;;;28.40;46.30;;;;;;5035926;28;20063;-78
2023/06/11 05:35:23;;;;;;;19.85;14.07;;;29.00;44.20;;;;;;5040380;28;20427;-76
2023/06/11 05:37:48;;;;;;;15.07;12.15;;;29.30;44.40;;;;;;5035437;28;20568;-76
2023/06/11 05:40:15;;;;;;;19.75;14.10;;;29.80;43.40;;;;;;5039341;28;20041;-77
2023/06/11 05:42:41;;;;;;;15.60;13.25;;;29.80;43.10;;;;;;5040596;28;20025;-77
2023/06/11 05:45:07;;;;;;;18.60;15.23;;;29.80;42.70;;;;;;5044443;28;20418;-77
2023/06/11 05:47:34;;;;;;;14.45;12.95;;;29.80;42.60;;;;;;5042099;28;20055;-77
2023/06/11 05:50:00;;;;;;;21.35;14.75;;;29.80;43.00;;;;;;5040324;28;20380;-77
2023/06/11 05:52:26;;;;;;;15.38;13.40;;;29.80;42.80;;;;;;5032547;28;20436;-77
2023/06/11 05:54:52;;;;;;;18.25;14.82;;;29.00;44.40;;;;;;5031773;28;20079;-78
2023/06/11 05:57:19;;;;;;;19.13;14.60;;;27.60;47.00;;;;;;5036644;28;20034;-77
2023/06/11 05:59:45;;;;;;;16.33;13.80;;;26.70;49.30;;;;;;5039542;28;20037;-76
2023/06/11 06:02:11;;;;;;;18.83;14.45;;;26.10;51.40;;;;;;5030895;28;20493;-77
2023/06/11 06:04:36;;;;;;;23.58;15.25;;;25.80;52.50;;;;;;5042658;28;20033;-76
2023/06/11 06:07:02;;;;;;;20.48;15.98;;;25.50;53.00;;;;;;5039743;28;20103;-77
2023/06/11 06:09:28;;;;;;;17.33;14.32;;;25.20;54.20;;;;;;5035605;28;20029;-77
2023/06/11 06:11:53;;;;;;;15.55;13.95;;;25.20;54.50;;;;;;5041009;28;20241;-77
2023/06/11 06:14:20;;;;;;;17.25;14.38;;;25.30;54.60;;;;;;5029354;28;20053;-76
2023/06/11 06:16:45;;;;;;;16.92;15.10;;;25.10;55.00;;;;;;5040664;28;20539;-76
2023/06/11 06:19:11;;;;;;;16.95;13.85;;;25.20;54.40;;;;;;5035739;28;20466;-77
2023/06/11 06:21:37;;;;;;;15.80;14.10;;;25.00;55.20;;;;;;5033039;28;20091;-77
2023/06/11 06:24:03;;;;;;;16.00;14.32;;;25.10;55.00;;;;;;5040156;28;20038;-78
2023/06/11 06:26:29;;;;;;;16.15;13.98;;;25.10;55.10;;;;;;5038342;28;20469;-78
2023/06/11 06:28:55;;;;;;;17.33;14.07;;;25.10;55.30;;;;;;5035759;28;20048;-77
2023/06/11 06:31:22;;;;;;;17.40;14.13;;;25.40;55.40;;;;;;5038407;28;20026;-77
2023/06/11 06:33:49;;;;;;;17.13;14.77;;;25.50;54.60;;;;;;5040836;28;20052;-77
2023/06/11 06:36:15;;;;;;;16.42;13.55;;;25.50;54.50;;;;;;5041390;28;20071;-77
2023/06/11 06:38:40;;;;;;;15.80;13.32;;;25.50;55.00;;;;;;5041693;28;20052;-77
2023/06/11 06:41:06;;;;;;;16.25;14.30;;;25.50;54.70;;;;;;5045396;28;20040;-77
2023/06/11 06:43:34;;;;;;;15.88;14.18;;;25.60;55.00;;;;;;5042331;28;20029;-78
2023/06/11 06:46:00;;;;;;;15.05;13.50;;;25.90;54.20;;;;;;5043646;28;20303;-79
2023/06/11 06:48:26;;;;;;;17.40;13.52;;;26.00;53.50;;;;;;5046274;28;20039;-77
2023/06/11 06:50:52;;;;;;;14.60;12.55;;;26.10;53.50;;;;;;5040764;28;20037;-77
2023/06/11 06:53:17;;;;;;;14.35;12.85;;;26.30;53.40;;;;;;5040072;28;20053;-77
2023/06/11 06:55:44;;;;;;;14.00;12.50;;;26.50;52.70;;;;;;5035724;28;20033;-77
2023/06/11 06:58:10;;;;;;;14.88;13.18;;;26.50;52.40;;;;;;5033300;28;20021;-77
2023/06/11 07:00:36;;;;;;;12.95;11.65;;;26.60;52.30;;;;;;5036265;28;20041;-79
2023/06/11 07:03:01;;;;;;;13.75;12.10;;;26.80;52.20;;;;;;5033628;28;20112;-79
2023/06/11 07:05:27;;;;;;;13.02;11.02;;;26.80;52.10;;;;;;5037986;28;20117;-77
2023/06/11 07:07:53;;;;;;;12.57;11.27;;;26.80;51.70;;;;;;5037421;28;20041;-78
2023/06/11 07:10:19;;;;;;;14.98;11.25;;;27.00;51.50;;;;;;5030917;28;20091;-78
2023/06/11 07:12:45;;;;;;;13.02;11.23;;;27.10;50.50;;;;;;5043459;28;20056;-78
2023/06/11 07:15:10;;;;;;;13.05;10.48;;;27.10;50.70;;;;;;5030599;28;20086;-79
2023/06/11 07:17:37;;;;;;;11.98;10.30;;;27.20;51.80;;;;;;5030763;28;20125;-77
2023/06/11 07:20:04;;;;;;;11.98;10.65;;;27.40;49.80;;;;;;5030528;28;20569;-77
2023/06/11 07:22:30;;;;;;;13.35;10.85;;;27.50;49.80;;;;;;5030850;28;20029;-77
2023/06/11 07:24:56;;;;;;;12.40;10.90;;;27.60;50.10;;;;;;5045716;28;20025;-79
2023/06/11 07:27:22;;;;;;;12.40;10.13;;;27.70;49.90;;;;;;5043077;28;20077;-78
2023/06/11 07:29:48;;;;;;;17.27;10.07;;;27.70;49.40;;;;;;5043308;28;20059;-77
2023/06/11 07:32:13;;;;;;;12.30;10.05;;;27.80;49.20;;;;;;5042123;28;20477;-79
2023/06/11 07:34:40;;;;;;;20.67;11.23;;;27.80;49.10;;;;;;5046714;28;20025;-78
2023/06/11 07:37:06;;;;;;;11.60;10.20;;;27.90;49.20;;;;;;5044652;28;20033;-78
2023/06/11 07:39:31;;;;;;;12.35;11.02;;;28.00;49.00;;;;;;5043288;28;20112;-77
2023/06/11 07:41:57;;;;;;;12.07;10.50;;;28.10;48.40;;;;;;5044226;28;20469;-77
2023/06/11 07:44:23;;;;;;;11.68;10.50;;;28.10;48.90;;;;;;5041613;28;20074;-78
2023/06/11 07:46:48;;;;;;;12.77;10.60;;;28.30;48.80;;;;;;5041896;28;20037;-77
2023/06/11 07:49:14;;;;;;;10.68;9.43;;;28.50;47.90;;;;;;5047546;28;20060;-77
2023/06/11 07:51:42;;;;;;;12.63;9.70;;;28.80;47.50;;;;;;5040829;28;20040;-77
2023/06/11 07:54:08;;;;;;;10.90;9.80;;;28.90;47.10;;;;;;5046326;28;20298;-76
2023/06/11 07:56:33;;;;;;;12.00;8.68;;;29.00;46.50;;;;;;5043359;28;20049;-77
2023/06/11 07:58:59;;;;;;;10.57;9.07;;;29.10;45.60;;;;;;5040306;28;20025;-79
2023/06/11 08:01:25;;;;;;;11.05;9.23;;;29.30;45.90;;;;;;5043173;28;20057;-77
2023/06/11 08:03:51;;;;;;;12.80;9.50;;;29.50;45.80;;;;;;5040762;28;20516;-78
2023/06/11 08:06:16;;;;;;;10.60;9.50;;;29.40;45.00;;;;;;5039340;28;20037;-79
2023/06/11 08:08:42;;;;;;;13.10;10.02;;;29.50;45.30;;;;;;5038700;28;20371;-77
2023/06/11 08:11:08;;;;;;;12.13;8.68;;;29.20;45.20;;;;;;5038971;28;20044;-76
2023/06/11 08:13:34;;;;;;;12.45;9.68;;;29.40;45.30;;;;;;5045123;28;20647;-77
2023/06/11 08:16:01;;;;;;;10.77;8.70;;;29.60;45.10;;;;;;5041979;28;20104;-77
2023/06/11 08:18:26;;;;;;;11.40;9.55;;;29.60;45.70;;;;;;5042201;28;20021;-77
2023/06/11 08:20:53;;;;;;;11.95;9.20;;;29.80;44.60;;;;;;5040959;28;20021;-78
2023/06/11 08:23:19;;;;;;;11.55;8.80;;;29.70;45.30;;;;;;5045408;28;20137;-77
2023/06/11 08:25:45;;;;;;;10.27;8.90;;;30.00;43.90;;;;;;5040448;28;20155;-79
2023/06/11 08:28:11;;;;;;;13.50;8.82;;;30.10;43.60;;;;;;5045490;28;20040;-79
2023/06/11 08:30:36;;;;;;;12.00;8.88;;;30.10;44.00;;;;;;5039596;28;20222;-78
2023/06/11 08:33:02;;;;;;;11.38;9.20;;;30.30;43.70;;;;;;5038293;28;20033;-78
2023/06/11 08:35:28;;;;;;;11.23;9.45;;;30.50;43.40;;;;;;5037593;28;20025;-78
2023/06/11 08:37:53;;;;;;;11.32;8.85;;;30.30;43.60;;;;;;5038425;28;20140;-77
2023/06/11 08:40:21;;;;;;;10.88;8.93;;;30.40;43.10;;;;;;5035975;28;20083;-78
2023/06/11 08:42:47;;;;;;;10.13;8.98;;;30.50;44.10;;;;;;5036682;28;20041;-77
2023/06/11 08:45:12;;;;;;;12.98;9.38;;;30.50;43.60;;;;;;5041834;28;20024;-79
2023/06/11 08:47:41;;;;;;;12.48;9.88;;;30.60;43.40;;;;;;5035063;28;20037;-78
2023/06/11 08:50:08;;;;;;;12.40;9.02;;;30.80;42.90;;;;;;5031334;28;20029;-78
2023/06/11 08:52:37;;;;;;;9.75;8.43;;;31.00;42.40;;;;;;5040758;28;20045;-77
2023/06/11 08:55:03;;;;;;;10.50;8.13;;;31.00;42.80;;;;;;5040641;28;20446;-78
2023/06/11 08:57:30;;;;;;;10.55;8.77;;;31.10;42.80;;;;;;5040852;28;20128;-77
2023/06/11 08:59:56;;;;;;;10.57;8.70;;;31.10;42.40;;;;;;5045250;28;20043;-77
2023/06/11 09:02:21;;;;;;;9.57;8.57;;;31.30;42.20;;;;;;5033944;28;20049;-76
2023/06/11 09:04:47;;;;;;;11.80;8.73;;;31.10;42.50;;;;;;5033177;28;20104;-76
2023/06/11 09:07:23;;;;;;;12.05;8.38;;;31.40;41.70;;;;;;5034230;28;20470;-76
2023/06/11 09:10:03;;;;;;;11.40;8.05;;;31.30;41.30;;;;;;5031279;28;20053;-77
2023/06/11 09:12:28;;;;;;;9.85;8.38;;;31.30;40.80;;;;;;5038796;28;20099;-77
2023/06/11 09:14:54;;;;;;;10.70;7.82;;;31.50;40.70;;;;;;5038594;28;20029;-77
2023/06/11 09:17:20;;;;;;;11.43;8.63;;;31.80;40.40;;;;;;5036371;28;20048;-76
2023/06/11 09:19:46;;;;;;;11.05;8.60;;;32.00;40.00;;;;;;5045484;28;20435;-77
2023/06/11 09:22:11;;;;;;;13.52;9.38;;;32.20;39.80;;;;;;5037058;28;20046;-76
2023/06/11 09:24:37;;;;;;;9.82;7.68;;;32.10;40.20;;;;;;5040469;28;20465;-77
2023/06/11 09:27:05;;;;;;;10.30;8.45;;;32.20;39.70;;;;;;5039421;28;20523;-78
2023/06/11 09:29:31;;;;;;;11.77;8.52;;;31.80;40.10;;;;;;5038330;28;20045;-77
2023/06/11 09:32:04;;;;;;;10.23;7.70;;;31.30;41.20;;;;;;5037015;28;20044;-77
2023/06/11 09:34:29;;;;;;;9.93;7.97;;;31.50;40.20;;;;;;5030623;28;20036;-77
2023/06/11 09:36:55;;;;;;;12.52;8.43;;;31.70;40.30;;;;;;5034337;28;20045;-77
2023/06/11 09:39:22;;;;;;;9.85;7.75;;;31.80;39.90;;;;;;5031666;28;20025;-77
2023/06/11 09:41:51;;;;;;;9.88;8.50;;;32.00;40.30;;;;;;5033284;28;20037;-77
2023/06/11 09:44:18;;;;;;;10.50;7.47;;;31.90;40.50;;;;;;5036044;28;20025;-78
2023/06/11 09:46:48;;;;;;;8.45;7.55;;;32.30;38.80;;;;;;5032671;28;20041;-76
2023/06/11 09:49:15;;;;;;;8.85;7.43;;;32.40;39.40;;;;;;5034745;28;20067;-77
2023/06/11 09:51:42;;;;;;;9.70;7.75;;;32.20;38.80;;;;;;5033386;28;20061;-80
2023/06/11 09:54:09;;;;;;;9.95;7.22;;;32.20;39.20;;;;;;5037034;28;20021;-79
2023/06/11 09:56:35;;;;;;;9.68;6.80;;;32.60;38.60;;;;;;5035318;28;20024;-78
2023/06/11 09:59:05;;;;;;;8.38;7.45;;;32.50;37.50;;;;;;5039709;28;20594;-80
2023/06/11 10:01:31;;;;;;;9.93;7.45;;;32.60;38.10;;;;;;5037992;28;20037;-78
2023/06/11 10:04:00;;;;;;;12.30;8.15;;;32.80;38.10;;;;;;5035547;28;21240;-79
2023/06/11 10:06:41;;;;;;;11.90;8.02;;;33.00;37.80;;;;;;5034553;28;20120;-78
2023/06/11 10:09:11;;;;;;;8.68;7.30;;;33.10;37.60;;;;;;5033707;28;20156;-79
2023/06/11 10:11:39;;;;;;;9.13;6.63;;;33.30;37.20;;;;;;5032205;28;20044;-79
2023/06/11 10:14:11;;;;;;;10.25;7.75;;;32.10;36.90;;;;;;5031726;28;20057;-78
2023/06/11 10:16:36;;;;;;;8.88;6.78;;;32.00;38.00;;;;;;5034617;28;20445;-78
2023/06/11 10:19:09;;;;;;;9.45;7.20;;;32.30;37.20;;;;;;5032213;28;20053;-78
2023/06/11 10:21:40;;;;;;;11.10;7.70;;;32.50;37.60;;;;;;5036175;28;20053;-79
2023/06/11 10:24:07;;;;;;;8.52;7.22;;;32.80;36.70;;;;;;5039876;28;20499;-78
2023/06/11 10:26:35;;;;;;;10.50;7.57;;;33.10;36.60;;;;;;5036791;28;21280;-79
2023/06/11 10:29:01;;;;;;;8.60;6.90;;;33.20;35.90;;;;;;5041486;28;20295;-79
2023/06/11 10:31:28;;;;;;;9.98;7.68;;;32.90;35.30;;;;;;5038008;28;20059;-77
2023/06/11 10:34:01;;;;;;;10.60;7.43;;;33.10;35.60;;;;;;5043721;28;20078;-78
2023/06/11 10:36:36;;;;;;;9.95;7.57;;;33.10;36.50;;;;;;5035954;28;20037;-79
2023/06/11 10:39:22;;;;;;;8.38;7.47;;;33.20;36.80;;;;;;5035725;28;20029;-79
2023/06/11 10:42:01;;;;;;;13.68;7.65;;;33.20;36.10;;;;;;5036636;28;20087;-79
2023/06/11 10:44:29;;;;;;;9.18;7.32;;;32.30;36.60;;;;;;5037956;28;20033;-79
2023/06/11 10:46:59;;;;;;;9.90;6.35;;;32.60;36.30;;;;;;5040084;28;20036;-80
2023/06/11 10:49:28;;;;;;;8.40;7.28;;;33.00;36.00;;;;;;5044737;28;20068;-79
2023/06/11 10:51:54;;;;;;;9.90;7.25;;;33.20;35.60;;;;;;5039978;28;20075;-79
2023/06/11 10:54:36;;;;;;;10.48;6.50;;;33.10;35.90;;;;;;5036015;28;20032;-80
2023/06/11 10:57:03;;;;;;;11.30;7.20;;;33.40;35.80;;;;;;5036863;28;20481;-81
2023/06/11 10:59:30;;;;;;;10.75;7.22;;;33.60;34.30;;;;;;5040776;28;20074;-81
2023/06/11 11:01:56;;;;;;;8.13;6.15;;;33.70;33.10;;;;;;5034795;28;20044;-81
2023/06/11 11:04:22;;;;;;;8.57;6.45;;;33.90;32.30;;;;;;5031239;28;20441;-82
2023/06/11 11:06:48;;;;;;;8.45;6.63;;;34.10;32.70;;;;;;5035670;28;20537;-81
2023/06/11 11:09:22;;;;;;;8.50;6.80;;;34.30;33.10;;;;;;5038024;28;20332;-82
2023/06/11 11:11:48;;;;;;;9.75;7.07;;;34.50;32.80;;;;;;5036844;28;20046;-82
2023/06/11 11:14:14;;;;;;;8.63;6.13;;;34.40;32.30;;;;;;5041857;28;20053;-81
2023/06/11 11:16:40;;;;;;;8.13;6.22;;;34.50;31.00;;;;;;5036856;28;20033;-81
2023/06/11 11:19:06;;;;;;;9.55;6.55;;;34.60;31.10;;;;;;5040103;28;20033;-81
2023/06/11 11:21:31;;;;;;;8.82;7.32;;;34.30;29.30;;;;;;5039619;28;20041;-81
2023/06/11 11:23:58;;;;;;;8.55;7.05;;;34.20;30.80;;;;;;5036146;28;20025;-81
2023/06/11 11:26:25;;;;;;;9.25;7.03;;;34.10;31.10;;;;;;5042121;28;20041;-81
2023/06/11 11:28:51;;;;;;;9.45;6.43;;;33.70;30.60;;;;;;5041071;28;20031;-81
2023/06/11 11:31:21;;;;;;;8.93;6.70;;;33.40;31.30;;;;;;5042515;28;20043;-81
2023/06/11 11:33:50;;;;;;;9.05;6.25;;;33.30;31.80;;;;;;5040668;28;20025;-80
2023/06/11 11:36:16;;;;;;;9.20;6.95;;;33.60;33.20;;;;;;5043373;28;20029;-81
2023/06/11 11:38:41;;;;;;;9.70;6.75;;;33.70;31.80;;;;;;5040305;28;20039;-82
2023/06/11 11:41:11;;;;;;;8.77;6.63;;;33.90;31.80;;;;;;5036130;28;20072;-81
2023/06/11 11:43:37;;;;;;;10.18;6.65;;;34.10;30.60;;;;;;5044166;28;20033;-81
2023/06/11 11:46:19;;;;;;;8.77;6.85;;;33.50;31.90;;;;;;5037276;28;20508;-81
2023/06/11 11:48:45;;;;;;;9.38;7.22;;;33.80;32.80;;;;;;5042658;28;20651;-81
2023/06/11 11:51:15;;;;;;;10.25;6.80;;;34.30;32.30;;;;;;5040484;28;20037;-81
2023/06/11 11:53:41;;;;;;;11.95;7.38;;;34.10;32.20;;;;;;5045953;28;20025;-81
2023/06/11 11:56:07;;;;;;;9.70;7.28;;;34.30;32.60;;;;;;5041430;28;20032;-81
2023/06/11 11:58:38;;;;;;;8.55;6.80;;;33.80;32.30;;;;;;5043456;28;20029;-81
2023/06/11 12:01:03;;;;;;;8.98;6.78;;;33.50;33.10;;;;;;5036290;28;20082;-81
2023/06/11 12:03:29;;;;;;;9.05;7.15;;;33.90;33.60;;;;;;5040794;28;20039;-81
2023/06/11 12:05:59;;;;;;;9.65;6.65;;;34.20;32.70;;;;;;5036148;28;20018;-81
2023/06/11 12:08:26;;;;;;;8.75;6.95;;;34.50;31.80;;;;;;5044232;28;20485;-81
2023/06/11 12:10:51;;;;;;;7.88;6.65;;;34.60;31.70;;;;;;5045309;28;20037;-82
2023/06/11 12:13:18;;;;;;;12.07;7.03;;;34.90;31.40;;;;;;5045720;28;20056;-81
2023/06/11 12:15:43;;;;;;;9.60;6.72;;;34.60;32.10;;;;;;5040920;28;20021;-82
2023/06/11 12:18:09;;;;;;;8.48;5.82;;;34.90;31.30;;;;;;5037173;28;20033;-82
2023/06/11 12:20:35;;;;;;;8.95;7.22;;;35.20;30.10;;;;;;5044936;28;20539;-81
2023/06/11 12:23:01;;;;;;;9.27;6.93;;;35.60;29.80;;;;;;5044245;28;20052;-81
2023/06/11 12:25:27;;;;;;;9.70;7.68;;;35.60;30.00;;;;;;5040871;28;20043;-81
2023/06/11 12:27:54;;;;;;;10.50;6.90;;;35.10;30.80;;;;;;5038347;28;20033;-81
2023/06/11 12:30:20;;;;;;;7.50;6.30;;;34.90;31.10;;;;;;5040137;28;20089;-81
2023/06/11 12:32:46;;;;;;;10.32;6.15;;;35.10;31.20;;;;;;5044024;28;20029;-82